createdAt,value
2018-08-17T00:02:12.508Z,94.31
2018-08-17T00:04:40.524Z,94.29
2018-08-17T00:07:07.884Z,94.26
2018-08-17T00:09:35.238Z,94.41
2018-08-17T00:12:02.549Z,95.40
2018-08-17T00:14:29.871Z,94.69
2018-08-17T00:16:57.143Z,94.53
2018-08-17T00:19:24.707Z,94.61
2018-08-17T00:21:52.037Z,95.23
2018-08-17T00:24:19.596Z,94.94
2018-08-17T00:26:47.211Z,95.39
2018-08-17T00:29:14.750Z,95.23
2018-08-17T00:31:42.026Z,95.41
2018-08-17T00:34:09.287Z,95.23
2018-08-17T00:36:36.598Z,95.22
2018-08-17T00:39:06.148Z,94.54
2018-08-17T00:41:33.502Z,94.67
2018-08-17T00:44:01.033Z,95.79
2018-08-17T00:46:29.469Z,95.16
2018-08-17T00:48:56.765Z,95.10
2018-08-17T00:51:23.987Z,95.09
2018-08-17T00:53:51.374Z,95.23
2018-08-17T00:56:18.621Z,95.03
2018-08-17T00:58:46.229Z,95.06
2018-08-17T01:01:13.492Z,95.70
2018-08-17T01:03:41.109Z,95.67
2018-08-17T01:06:08.495Z,95.38
2018-08-17T01:08:35.979Z,95.20
2018-08-17T01:11:03.371Z,95.30
2018-08-17T01:13:30.858Z,95.40
2018-08-17T01:15:58.642Z,95.10
2018-08-17T01:18:26.041Z,94.97
2018-08-17T01:20:53.331Z,95.63
2018-08-17T01:23:20.654Z,95.14
2018-08-17T01:25:48.406Z,95.41
2018-08-17T01:28:16.047Z,95.47
2018-08-17T01:30:43.670Z,95.38
2018-08-17T01:33:11.056Z,95.44
2018-08-17T01:35:38.338Z,95.65
2018-08-17T01:38:05.590Z,95.58
2018-08-17T01:40:32.881Z,95.67
2018-08-17T01:43:00.233Z,95.85
2018-08-17T01:45:27.621Z,95.66
2018-08-17T01:47:54.874Z,96.12
2018-08-17T01:50:22.231Z,95.80
2018-08-17T01:52:49.482Z,95.57
2018-08-17T01:55:16.833Z,95.43
2018-08-17T01:57:44.137Z,95.32
2018-08-17T02:00:11.749Z,96.19
2018-08-17T02:02:42.429Z,95.82
2018-08-17T02:05:10.237Z,95.65
2018-08-17T02:07:37.682Z,95.34
2018-08-17T02:10:07.005Z,96.10
2018-08-17T02:12:34.228Z,96.52
2018-08-17T02:15:01.668Z,96.07
2018-08-17T02:17:28.987Z,95.83
2018-08-17T02:19:56.342Z,94.87
2018-08-17T02:22:23.620Z,95.50
2018-08-17T02:24:50.864Z,95.53
2018-08-17T02:27:18.150Z,95.67
2018-08-17T02:29:45.443Z,95.15
2018-08-17T02:32:13.266Z,95.87
2018-08-17T02:34:40.874Z,95.78
2018-08-17T02:37:08.321Z,95.24
2018-08-17T02:39:35.626Z,95.61
2018-08-17T02:42:03.716Z,95.85
2018-08-17T02:44:31.766Z,95.79
2018-08-17T02:46:59.466Z,95.98
2018-08-17T02:49:26.772Z,95.92
2018-08-17T02:54:37.750Z,96.01
2018-08-17T02:57:05.373Z,95.61
2018-08-17T02:59:33.109Z,96.28
2018-08-17T03:02:00.532Z,96.07
2018-08-17T03:04:28.254Z,95.59
2018-08-17T03:06:56.299Z,96.22
2018-08-17T03:09:23.605Z,95.76
2018-08-17T03:11:51.012Z,95.60
2018-08-17T03:14:18.317Z,96.68
2018-08-17T03:16:45.985Z,96.04
2018-08-17T03:19:13.945Z,96.46
2018-08-17T03:21:41.195Z,96.07
2018-08-17T03:24:08.495Z,95.66
2018-08-17T03:26:35.786Z,96.09
2018-08-17T03:29:03.228Z,96.34
2018-08-17T03:31:30.707Z,96.01
2018-08-17T03:33:58.005Z,95.97
2018-08-17T03:36:25.346Z,96.04
2018-08-17T03:38:52.585Z,95.87
2018-08-17T03:41:19.880Z,96.03
2018-08-17T03:43:47.274Z,95.79
2018-08-17T03:46:14.512Z,96.08
2018-08-17T03:48:41.950Z,96.17
2018-08-17T03:51:09.313Z,96.02
2018-08-17T03:53:36.860Z,95.87
2018-08-17T03:56:04.246Z,95.69
2018-08-17T03:58:32.113Z,96.15
2018-08-17T04:00:59.611Z,95.96
2018-08-17T04:03:27.273Z,95.91
2018-08-17T04:05:54.689Z,95.93
2018-08-17T04:08:22.367Z,95.62
2018-08-17T04:10:49.670Z,96.29
2018-08-17T04:13:16.944Z,95.52
2018-08-17T04:15:44.356Z,96.03
2018-08-17T04:18:11.650Z,95.42
2018-08-17T04:20:39.278Z,95.81
2018-08-17T04:23:06.542Z,94.10
2018-08-17T04:25:33.993Z,95.86
2018-08-17T04:28:01.558Z,96.03
2018-08-17T04:30:28.898Z,96.35
2018-08-17T04:32:57.158Z,96.20
2018-08-17T04:35:24.464Z,96.20
2018-08-17T04:37:51.689Z,96.42
2018-08-17T04:40:18.979Z,96.54
2018-08-17T04:42:46.321Z,96.81
2018-08-17T04:45:14.285Z,96.41
2018-08-17T04:47:41.653Z,96.31
2018-08-17T04:50:09.449Z,96.60
2018-08-17T04:52:37.769Z,96.37
2018-08-17T04:55:05.441Z,96.12
2018-08-17T04:57:32.947Z,96.35
2018-08-17T05:00:00.231Z,96.02
2018-08-17T05:02:27.522Z,96.46
2018-08-17T05:04:54.815Z,96.17
2018-08-17T05:07:22.449Z,96.57
2018-08-17T05:09:49.749Z,96.56
2018-08-17T05:12:17.079Z,95.91
2018-08-17T05:14:44.350Z,96.32
2018-08-17T05:17:11.711Z,96.31
2018-08-17T05:19:39.059Z,96.47
2018-08-17T05:22:06.391Z,96.41
2018-08-17T05:24:33.663Z,96.36
2018-08-17T05:27:00.952Z,96.69
2018-08-17T05:29:28.365Z,96.36
2018-08-17T05:31:55.791Z,96.42
2018-08-17T05:34:23.090Z,96.56
2018-08-17T05:36:50.318Z,96.99
2018-08-17T05:39:17.603Z,96.63
2018-08-17T05:41:44.946Z,96.04
2018-08-17T05:44:12.291Z,94.91
2018-08-17T05:46:39.639Z,96.70
2018-08-17T05:49:06.933Z,97.17
2018-08-17T05:51:34.235Z,97.16
2018-08-17T05:54:01.486Z,96.82
2018-08-17T05:56:28.896Z,97.20
2018-08-17T05:58:56.192Z,97.18
2018-08-17T06:01:23.516Z,97.16
2018-08-17T06:03:50.952Z,96.78
2018-08-17T06:06:18.267Z,96.86
2018-08-17T06:08:45.811Z,97.07
2018-08-17T06:11:13.475Z,96.76
2018-08-17T06:13:40.853Z,96.78
2018-08-17T06:16:08.480Z,97.12
2018-08-17T06:18:36.329Z,96.85
2018-08-17T06:21:04.051Z,96.36
2018-08-17T06:23:31.331Z,96.63
2018-08-17T06:25:58.743Z,96.74
2018-08-17T06:28:26.230Z,95.63
2018-08-17T06:30:54.235Z,96.80
2018-08-17T06:33:21.550Z,96.42
2018-08-17T06:35:49.959Z,95.92
2018-08-17T06:38:17.741Z,96.28
2018-08-17T06:40:45.325Z,96.08
2018-08-17T06:43:12.955Z,96.26
2018-08-17T06:45:40.345Z,96.69
2018-08-17T06:48:07.765Z,96.98
2018-08-17T06:50:35.434Z,95.37
2018-08-17T06:53:03.227Z,96.88
2018-08-17T06:55:30.751Z,96.87
2018-08-17T06:57:58.235Z,96.50
2018-08-17T07:00:25.601Z,94.98
2018-08-17T07:02:53.211Z,95.96
2018-08-17T07:05:20.812Z,96.76
2018-08-17T07:07:48.402Z,97.37
2018-08-17T07:10:15.651Z,97.20
2018-08-17T07:12:43.220Z,96.93
2018-08-17T07:15:10.649Z,96.85
2018-08-17T07:17:38.163Z,96.65
2018-08-17T07:20:06.596Z,96.54
2018-08-17T07:22:33.968Z,95.70
2018-08-17T07:25:01.653Z,94.76
2018-08-17T07:27:28.983Z,93.90
2018-08-17T07:29:57.714Z,94.39
2018-08-17T07:32:25.165Z,90.74
2018-08-17T07:34:52.524Z,93.09
2018-08-17T07:37:19.830Z,93.98
2018-08-17T07:39:47.187Z,93.93
2018-08-17T07:42:14.826Z,92.95
2018-08-17T07:44:42.422Z,94.04
2018-08-17T07:47:09.879Z,92.71
2018-08-17T07:49:37.341Z,93.64
2018-08-17T07:52:04.799Z,85.96
2018-08-17T07:54:33.149Z,90.75
2018-08-17T07:57:00.617Z,86.63
2018-08-17T07:59:28.036Z,88.17
2018-08-17T08:01:55.699Z,86.04
2018-08-17T08:04:23.151Z,83.97
2018-08-17T08:06:50.577Z,84.84
2018-08-17T08:09:18.037Z,85.34
2018-08-17T08:11:46.531Z,86.82
2018-08-17T08:14:14.211Z,85.16
2018-08-17T08:16:42.200Z,87.43
2018-08-17T08:19:12.233Z,81.76
2018-08-17T08:21:42.344Z,82.56
2018-08-17T08:24:09.725Z,81.37
2018-08-17T08:26:37.533Z,87.43
2018-08-17T08:29:05.028Z,82.10
2018-08-17T08:31:32.543Z,81.34
2018-08-17T08:34:00.359Z,79.77
2018-08-17T08:36:27.805Z,79.47
2018-08-17T08:38:55.305Z,85.96
2018-08-17T08:41:22.891Z,83.78
2018-08-17T08:43:50.609Z,81.23
2018-08-17T08:46:18.000Z,82.38
2018-08-17T08:48:45.366Z,83.08
2018-08-17T08:51:12.880Z,83.54
2018-08-17T08:53:40.211Z,77.74
2018-08-17T08:56:07.612Z,74.76
2018-08-17T08:58:34.843Z,76.84
2018-08-17T09:01:02.271Z,74.32
2018-08-17T09:03:30.422Z,81.89
2018-08-17T09:05:58.395Z,71.79
2018-08-17T09:08:26.590Z,75.21
2018-08-17T09:10:54.037Z,80.00
2018-08-17T09:13:21.447Z,75.50
2018-08-17T09:15:48.831Z,76.59
2018-08-17T09:18:16.258Z,75.28
2018-08-17T09:20:43.642Z,76.08
2018-08-17T09:23:11.202Z,79.15
2018-08-17T09:25:38.801Z,79.62
2018-08-17T09:28:06.312Z,72.04
2018-08-17T09:30:33.752Z,68.93
2018-08-17T09:33:01.137Z,69.87
2018-08-17T09:35:28.686Z,74.55
2018-08-17T09:37:56.057Z,70.32
2018-08-17T09:40:23.589Z,71.69
2018-08-17T09:42:51.149Z,73.96
2018-08-17T09:45:18.635Z,69.06
2018-08-17T09:47:46.034Z,71.93
2018-08-17T09:50:14.561Z,74.07
2018-08-17T09:52:41.964Z,76.07
2018-08-17T09:55:09.466Z,71.23
2018-08-17T09:57:36.993Z,70.82
2018-08-17T10:00:05.713Z,68.88
2018-08-17T10:02:38.793Z,65.99
2018-08-17T10:05:12.043Z,68.13
2018-08-17T10:07:44.952Z,68.94
2018-08-17T10:10:21.470Z,64.57
2018-08-17T10:12:50.050Z,62.24
2018-08-17T10:15:17.568Z,64.97
2018-08-17T10:17:45.126Z,64.49
2018-08-17T10:20:20.583Z,66.03
2018-08-17T10:22:48.543Z,61.56
2018-08-17T10:25:17.326Z,52.90
2018-08-17T10:27:45.909Z,49.92
2018-08-17T10:30:13.472Z,53.99
2018-08-17T10:32:48.259Z,56.93
2018-08-17T10:35:21.383Z,54.15
2018-08-17T10:37:48.971Z,48.28
2018-08-17T10:40:16.449Z,45.93
2018-08-17T10:42:43.857Z,41.71
2018-08-17T10:45:11.477Z,41.70
2018-08-17T10:47:38.840Z,41.68
2018-08-17T10:50:11.656Z,43.95
2018-08-17T10:52:39.144Z,41.55
2018-08-17T10:55:06.988Z,40.84
2018-08-17T10:57:34.467Z,41.04
2018-08-17T11:00:01.824Z,38.56
2018-08-17T11:02:29.253Z,39.08
2018-08-17T11:04:57.471Z,41.78
2018-08-17T11:07:30.252Z,42.83
2018-08-17T11:09:57.634Z,45.91
2018-08-17T11:12:25.078Z,47.47
2018-08-17T11:14:52.710Z,47.11
2018-08-17T11:17:20.290Z,47.94
2018-08-17T11:19:47.628Z,48.42
2018-08-17T11:22:15.456Z,44.56
2018-08-17T11:24:42.918Z,45.94
2018-08-17T11:27:10.472Z,42.69
2018-08-17T11:29:37.862Z,49.08
2018-08-17T11:32:05.295Z,50.21
2018-08-17T11:34:32.655Z,49.56
2018-08-17T11:36:59.946Z,48.29
2018-08-17T11:39:27.370Z,43.80
2018-08-17T11:41:54.790Z,38.43
2018-08-17T11:44:22.142Z,34.63
2018-08-17T11:46:49.501Z,34.90
2018-08-17T11:49:16.962Z,32.92
2018-08-17T11:51:44.416Z,32.73
2018-08-17T11:54:12.116Z,30.76
2018-08-17T11:56:39.822Z,31.15
2018-08-17T11:59:07.218Z,32.83
2018-08-17T12:01:35.030Z,32.83
2018-08-17T12:04:02.763Z,37.17
2018-08-17T12:06:30.174Z,31.37
2018-08-17T12:08:57.621Z,32.86
2018-08-17T12:11:25.079Z,29.93
2018-08-17T12:13:52.447Z,33.28
2018-08-17T12:16:19.825Z,34.81
2018-08-17T12:18:47.375Z,29.25
2018-08-17T12:21:14.938Z,29.02
2018-08-17T12:23:43.017Z,28.82
2018-08-17T12:26:10.441Z,28.84
2018-08-17T12:28:37.865Z,28.28
2018-08-17T12:31:05.597Z,30.10
2018-08-17T12:33:32.957Z,33.71
2018-08-17T12:36:00.302Z,30.03
2018-08-17T12:38:27.607Z,27.27
2018-08-17T12:40:55.850Z,31.32
2018-08-17T12:43:33.819Z,30.35
2018-08-17T12:46:01.181Z,29.03
2018-08-17T12:48:28.608Z,29.99
2018-08-17T12:51:01.634Z,30.54
2018-08-17T12:53:30.166Z,29.06
2018-08-17T12:55:57.650Z,31.10
2018-08-17T12:58:25.369Z,34.04
2018-08-17T13:00:52.682Z,32.44
2018-08-17T13:03:20.135Z,31.39
2018-08-17T13:05:47.641Z,32.71
2018-08-17T13:08:15.025Z,31.93
2018-08-17T13:40:22.469Z,39.83
2018-08-17T13:42:49.772Z,38.38
2018-08-17T13:45:17.045Z,38.97
2018-08-17T13:47:44.355Z,38.94
2018-08-17T13:50:11.717Z,38.31
2018-08-17T13:52:39.055Z,43.08
2018-08-17T13:55:06.357Z,42.83
2018-08-17T13:57:33.903Z,42.09
2018-08-17T14:00:01.271Z,39.31
2018-08-17T14:02:28.568Z,40.40
2018-08-17T14:04:55.881Z,40.43
2018-08-17T14:07:23.207Z,39.78
2018-08-17T14:09:50.887Z,40.50
2018-08-17T14:12:18.967Z,42.17
2018-08-17T14:14:46.255Z,43.34
2018-08-17T14:17:13.881Z,43.36
2018-08-17T14:19:41.509Z,40.60
2018-08-17T14:22:08.981Z,40.92
2018-08-17T14:24:36.389Z,39.29
2018-08-17T14:27:03.914Z,41.79
2018-08-17T14:29:31.260Z,43.22
2018-08-17T14:31:58.613Z,40.26
2018-08-17T14:34:26.135Z,38.38
2018-08-17T14:36:53.336Z,40.98
2018-08-17T14:39:20.850Z,42.58
2018-08-17T14:42:02.107Z,39.27
2018-08-17T14:44:29.892Z,38.29
2018-08-17T14:46:57.191Z,41.97
2018-08-17T14:49:25.049Z,42.37
2018-08-17T14:51:52.712Z,42.16
2018-08-17T14:54:20.579Z,41.14
2018-08-17T14:56:48.113Z,42.87
2018-08-17T14:59:16.035Z,43.36
2018-08-17T15:01:43.658Z,45.00
2018-08-17T15:04:11.160Z,43.47
2018-08-17T15:06:38.789Z,44.87
2018-08-17T15:09:08.252Z,44.83
2018-08-17T15:11:36.120Z,45.17
2018-08-17T15:14:03.753Z,46.36
2018-08-17T15:16:32.023Z,48.40
2018-08-17T15:18:59.864Z,47.91
2018-08-17T15:21:27.250Z,46.45
2018-08-17T15:23:55.813Z,48.76
2018-08-17T15:26:24.474Z,46.36
2018-08-17T15:28:51.933Z,45.13
2018-08-17T15:31:19.428Z,45.49
2018-08-17T15:33:46.998Z,44.69
2018-08-17T15:36:14.361Z,44.25
2018-08-17T15:38:42.113Z,43.31
2018-08-17T15:41:10.000Z,47.16
2018-08-17T15:43:37.754Z,43.93
2018-08-17T15:46:05.242Z,45.33
2018-08-17T15:48:39.675Z,45.05
2018-08-17T15:51:09.975Z,44.41
2018-08-17T15:53:37.619Z,45.22
2018-08-17T15:56:04.981Z,43.46
2018-08-17T15:58:32.334Z,43.81
2018-08-17T16:00:59.722Z,45.86
2018-08-17T16:03:27.180Z,46.51
2018-08-17T16:05:54.409Z,44.61
2018-08-17T16:08:21.689Z,44.29
2018-08-17T16:10:48.972Z,43.74
2018-08-17T16:13:16.322Z,42.77
2018-08-17T16:15:43.716Z,43.73
2018-08-17T16:18:11.182Z,43.85
2018-08-17T16:20:38.415Z,43.18
2018-08-17T16:23:05.788Z,42.13
2018-08-17T16:25:33.233Z,44.49
2018-08-17T16:28:00.582Z,44.94
2018-08-17T16:30:27.834Z,45.94
2018-08-17T16:32:55.189Z,46.03
2018-08-17T16:35:22.497Z,47.65
2018-08-17T16:37:49.793Z,47.75
2018-08-17T16:40:17.065Z,48.94
2018-08-17T16:42:45.804Z,48.87
2018-08-17T16:45:13.307Z,49.30
2018-08-17T16:47:40.749Z,51.54
2018-08-17T16:50:08.816Z,50.45
2018-08-17T16:52:36.304Z,51.99
2018-08-17T16:55:04.240Z,51.89
2018-08-17T16:57:31.582Z,51.42
2018-08-17T16:59:58.917Z,51.86
2018-08-17T17:02:26.373Z,53.61
2018-08-17T17:04:53.730Z,51.75
2018-08-17T17:07:26.600Z,52.50
2018-08-17T17:09:54.033Z,51.64
2018-08-17T17:12:21.385Z,51.98
2018-08-17T17:14:49.015Z,52.20
2018-08-17T17:17:16.505Z,52.53
2018-08-17T17:19:43.952Z,52.38
2018-08-17T17:22:11.883Z,51.49
2018-08-17T17:24:39.216Z,52.35
2018-08-17T17:27:07.154Z,51.02
2018-08-17T17:29:35.835Z,51.49
2018-08-17T17:32:03.448Z,51.82
2018-08-17T17:34:30.840Z,53.92
2018-08-17T17:36:58.752Z,55.59
2018-08-17T17:39:26.343Z,54.18
2018-08-17T17:41:53.833Z,53.40
2018-08-17T17:44:21.594Z,53.02
2018-08-17T17:46:49.083Z,53.58
2018-08-17T17:49:16.412Z,53.91
2018-08-17T17:51:43.798Z,53.59
2018-08-17T17:54:20.166Z,54.82
2018-08-17T17:56:51.778Z,54.58
2018-08-17T17:59:19.074Z,53.98
2018-08-17T18:01:47.410Z,54.86
2018-08-17T18:04:15.216Z,55.81
2018-08-17T18:06:42.678Z,54.23
2018-08-17T18:09:09.983Z,54.55
2018-08-17T18:11:37.291Z,54.79
2018-08-17T18:14:04.621Z,56.37
2018-08-17T18:16:32.000Z,57.15
2018-08-17T18:18:59.412Z,57.97
2018-08-17T18:21:29.771Z,56.97
2018-08-17T18:24:12.049Z,57.13
2018-08-17T18:26:45.006Z,59.55
2018-08-17T18:29:12.513Z,59.29
2018-08-17T18:31:39.813Z,59.30
2018-08-17T18:34:07.066Z,60.25
2018-08-17T18:36:34.415Z,60.77
2018-08-17T18:39:02.116Z,61.23
2018-08-17T18:41:29.681Z,61.07
2018-08-17T18:43:57.324Z,59.95
2018-08-17T18:46:24.826Z,60.89
2018-08-17T18:48:52.826Z,61.31
2018-08-17T18:51:20.277Z,62.56
2018-08-17T18:53:47.891Z,61.95
2018-08-17T18:56:15.634Z,61.54
2018-08-17T18:58:43.106Z,61.58
2018-08-17T19:01:10.722Z,62.68
2018-08-17T19:03:38.212Z,62.45
2018-08-17T19:06:06.095Z,63.39
2018-08-17T19:08:33.494Z,62.81
2018-08-17T19:11:01.426Z,62.23
2018-08-17T19:13:29.097Z,62.44
2018-08-17T19:15:56.922Z,63.88
2018-08-17T19:18:29.082Z,63.16
2018-08-17T19:21:01.609Z,63.69
2018-08-17T19:23:29.067Z,65.65
2018-08-17T19:25:58.088Z,63.23
2018-08-17T19:28:25.456Z,65.71
2018-08-17T19:30:53.309Z,63.80
2018-08-17T19:33:21.479Z,65.24
2018-08-17T19:35:48.831Z,64.62
2018-08-17T19:38:16.418Z,65.32
2018-08-17T19:40:43.652Z,66.82
2018-08-17T19:43:11.156Z,65.22
2018-08-17T19:45:39.333Z,66.82
2018-08-17T19:48:06.825Z,66.23
2018-08-17T19:50:34.652Z,66.44
2018-08-17T19:53:02.050Z,68.36
2018-08-17T19:55:29.365Z,66.27
2018-08-17T19:57:56.830Z,66.50
2018-08-17T20:00:24.907Z,68.73
2018-08-17T20:02:52.427Z,70.27
2018-08-17T20:05:19.790Z,69.06
2018-08-17T20:07:47.177Z,68.74
2018-08-17T20:10:14.720Z,66.41
2018-08-17T20:12:43.106Z,66.87
2018-08-17T20:15:10.451Z,68.35
2018-08-17T20:17:38.089Z,67.91
2018-08-17T20:20:07.931Z,70.88
2018-08-17T20:22:35.321Z,70.15
2018-08-17T20:25:12.064Z,67.97
2018-08-17T20:27:39.733Z,71.71
2018-08-17T20:30:13.022Z,69.99
2018-08-17T20:32:40.375Z,69.93
2018-08-17T20:35:07.794Z,69.79
2018-08-17T20:37:37.593Z,71.02
2018-08-17T20:40:05.474Z,73.28
2018-08-17T20:42:33.435Z,72.47
2018-08-17T20:45:01.086Z,71.34
2018-08-17T20:47:28.706Z,71.67
2018-08-17T20:49:56.078Z,74.99
2018-08-17T20:52:23.407Z,72.06
2018-08-17T20:54:51.020Z,75.12
2018-08-17T20:57:18.449Z,70.92
2018-08-17T20:59:45.773Z,73.04
2018-08-17T21:02:13.118Z,73.97
2018-08-17T21:04:40.717Z,74.33
2018-08-17T21:07:08.494Z,74.17
2018-08-17T21:09:36.189Z,75.87
2018-08-17T21:12:04.906Z,74.26
2018-08-17T21:14:32.198Z,72.13
2018-08-17T21:16:59.564Z,72.08
2018-08-17T21:19:32.528Z,73.38
2018-08-17T21:22:00.289Z,73.26
2018-08-17T21:24:27.656Z,73.95
2018-08-17T21:26:55.457Z,73.63
2018-08-17T21:29:22.896Z,73.46
2018-08-17T21:31:51.622Z,74.28
2018-08-17T21:34:19.086Z,73.50
2018-08-17T21:36:46.507Z,74.90
2018-08-17T21:39:16.651Z,73.60
2018-08-17T21:41:45.195Z,73.53
2018-08-17T21:44:13.774Z,75.05
2018-08-17T21:47:05.734Z,75.93
2018-08-17T21:49:34.011Z,75.51
2018-08-17T21:52:03.124Z,77.74
2018-08-17T21:54:31.286Z,77.80
2018-08-17T21:56:59.598Z,76.07
2018-08-17T21:59:32.378Z,77.70
2018-08-17T22:02:00.234Z,75.36
2018-08-17T22:04:27.892Z,75.59
2018-08-17T22:06:55.165Z,78.91
2018-08-17T22:09:33.978Z,76.59
2018-08-17T22:12:01.277Z,76.59
2018-08-17T22:14:29.178Z,76.55
2018-08-17T22:16:57.233Z,75.77
2018-08-17T22:19:35.813Z,75.16
2018-08-17T22:22:03.245Z,76.50
2018-08-17T22:24:31.561Z,75.46
2018-08-17T22:26:59.033Z,75.93
2018-08-17T22:29:26.375Z,76.17
2018-08-17T22:31:53.774Z,76.21
2018-08-17T22:34:22.079Z,76.82
2018-08-17T22:36:49.627Z,81.02
2018-08-17T22:39:17.280Z,77.28
2018-08-17T22:41:44.779Z,77.46
2018-08-17T22:44:17.812Z,80.87
2018-08-17T22:46:55.281Z,81.71
2018-08-17T22:49:22.663Z,77.38
2018-08-17T22:51:50.257Z,78.20
2018-08-17T22:54:17.637Z,78.32
2018-08-17T22:56:44.950Z,80.58
2018-08-17T22:59:12.249Z,79.76
2018-08-17T23:01:39.562Z,78.34
2018-08-17T23:04:07.690Z,78.21
2018-08-17T23:06:35.152Z,81.44
2018-08-17T23:09:02.679Z,79.37
2018-08-17T23:11:35.717Z,79.89
2018-08-17T23:14:10.473Z,78.85
2018-08-17T23:16:37.766Z,81.07
2018-08-17T23:19:05.481Z,79.90
2018-08-17T23:21:32.740Z,79.87
2018-08-17T23:24:00.806Z,80.62
2018-08-17T23:26:28.117Z,82.90
2018-08-17T23:28:56.286Z,81.93
2018-08-17T23:31:23.537Z,82.38
2018-08-17T23:33:50.989Z,83.44
2018-08-17T23:36:18.226Z,82.93
2018-08-17T23:38:45.502Z,81.30
2018-08-17T23:41:14.485Z,83.61
2018-08-17T23:43:41.798Z,81.81
2018-08-17T23:46:09.428Z,83.29
2018-08-17T23:48:36.774Z,83.93
2018-08-17T23:51:04.027Z,83.90
2018-08-17T23:53:32.427Z,83.67
2018-08-17T23:55:59.921Z,83.85
2018-08-17T23:58:27.985Z,84.65
